sensor_id;sensor_type;location;lat;lon;timestamp;pressure;altitude;pressure_sealevel;temperature;humidity
50550;BME280;36505;52.512;13.460;2023-05-25T00:02:00;101790.19;;;11.64;70.70
50550;BME280;36505;52.512;13.460;2023-05-25T00:04:29;101798.78;;;11.68;70.55
50550;BME280;36505;52.512;13.460;2023-05-25T00:06:54;101790.19;;;11.64;70.52
50550;BME280;36505;52.512;13.460;2023-05-25T00:09:20;101792.09;;;11.64;70.52
50550;BME280;36505;52.512;13.460;2023-05-25T00:11:45;101789.13;;;11.65;70.67
50550;BME280;36505;52.512;13.460;2023-05-25T00:14:11;101786.59;;;11.64;70.48
50550;BME280;36505;52.512;13.460;2023-05-25T00:16:36;101792.72;;;11.66;70.67
50550;BME280;36505;52.512;13.460;2023-05-25T00:19:04;101792.25;;;11.69;70.76
50550;BME280;36505;52.512;13.460;2023-05-25T00:21:29;101798.97;;;11.73;71.08
50550;BME280;36505;52.512;13.460;2023-05-25T00:23:55;101801.06;;;11.77;70.67
50550;BME280;36505;52.512;13.460;2023-05-25T00:26:20;101797.41;;;11.83;70.43
50550;BME280;36505;52.512;13.460;2023-05-25T00:28:45;101770.47;;;11.74;70.00
50550;BME280;36505;52.512;13.460;2023-05-25T00:31:11;101791.41;;;11.93;69.97
50550;BME280;36505;52.512;13.460;2023-05-25T00:33:36;101790.09;;;11.96;69.59
50550;BME280;36505;52.512;13.460;2023-05-25T00:36:02;101785.22;;;11.98;69.42
50550;BME280;36505;52.512;13.460;2023-05-25T00:38:27;101790.63;;;12.04;69.21
50550;BME280;36505;52.512;13.460;2023-05-25T00:40:55;101786.59;;;12.07;69.14
50550;BME280;36505;52.512;13.460;2023-05-25T00:43:21;101787.13;;;12.15;69.07
50550;BME280;36505;52.512;13.460;2023-05-25T00:45:47;101785.13;;;12.22;69.11
50550;BME280;36505;52.512;13.460;2023-05-25T00:48:14;101779.50;;;12.17;68.40
50550;BME280;36505;52.512;13.460;2023-05-25T00:50:42;101795.19;;;12.28;68.40
50550;BME280;36505;52.512;13.460;2023-05-25T00:53:10;101791.38;;;12.30;68.13
50550;BME280;36505;52.512;13.460;2023-05-25T00:56:25;101791.16;;;12.31;68.07
50550;BME280;36505;52.512;13.460;2023-05-25T00:58:26;101788.19;;;12.33;67.72
50550;BME280;36505;52.512;13.460;2023-05-25T01:00:53;101772.03;;;12.24;67.43
50550;BME280;36505;52.512;13.460;2023-05-25T01:03:22;101782.91;;;12.31;67.54
50550;BME280;36505;52.512;13.460;2023-05-25T01:05:53;101779.09;;;12.32;67.18
50550;BME280;36505;52.512;13.460;2023-05-25T01:08:19;101787.13;;;12.34;67.25
50550;BME280;36505;52.512;13.460;2023-05-25T01:10:48;101792.84;;;12.32;67.12
50550;BME280;36505;52.512;13.460;2023-05-25T01:13:16;101783.16;;;12.30;67.28
50550;BME280;36505;52.512;13.460;2023-05-25T01:15:42;101775.81;;;12.23;67.37
50550;BME280;36505;52.512;13.460;2023-05-25T01:18:07;101772.94;;;12.18;67.35
50550;BME280;36505;52.512;13.460;2023-05-25T01:20:33;101776.00;;;12.10;67.49
50550;BME280;36505;52.512;13.460;2023-05-25T01:23:05;101786.34;;;12.08;67.60
50550;BME280;36505;52.512;13.460;2023-05-25T01:25:39;101784.53;;;12.02;67.62
50550;BME280;36505;52.512;13.460;2023-05-25T01:28:10;101779.81;;;11.91;67.90
50550;BME280;36505;52.512;13.460;2023-05-25T01:30:39;101796.72;;;11.88;68.23
50550;BME280;36505;52.512;13.460;2023-05-25T01:33:06;101794.88;;;11.82;68.36
50550;BME280;36505;52.512;13.460;2023-05-25T01:35:33;101793.91;;;11.76;68.56
50550;BME280;36505;52.512;13.460;2023-05-25T01:37:59;101794.13;;;11.75;68.93
50550;BME280;36505;52.512;13.460;2023-05-25T01:40:26;101795.84;;;11.69;69.11
50550;BME280;36505;52.512;13.460;2023-05-25T01:42:51;101797.16;;;11.67;69.00
50550;BME280;36505;52.512;13.460;2023-05-25T01:45:16;101783.72;;;11.59;69.38
50550;BME280;36505;52.512;13.460;2023-05-25T01:50:24;101798.66;;;11.63;69.70
50550;BME280;36505;52.512;13.460;2023-05-25T01:55:55;101793.84;;;11.58;69.82
50550;BME280;36505;52.512;13.460;2023-05-25T01:58:24;101791.75;;;11.54;69.93
50550;BME280;36505;52.512;13.460;2023-05-25T02:00:51;101784.22;;;11.49;70.29
50550;BME280;36505;52.512;13.460;2023-05-25T02:03:17;101776.94;;;11.36;70.58
50550;BME280;36505;52.512;13.460;2023-05-25T02:05:42;101791.88;;;11.40;70.64
50550;BME280;36505;52.512;13.460;2023-05-25T02:08:08;101792.97;;;11.39;70.71
50550;BME280;36505;52.512;13.460;2023-05-25T02:10:33;101786.88;;;11.37;71.14
50550;BME280;36505;52.512;13.460;2023-05-25T02:12:58;101770.69;;;11.29;71.06
50550;BME280;36505;52.512;13.460;2023-05-25T02:15:26;101787.91;;;11.36;71.26
50550;BME280;36505;52.512;13.460;2023-05-25T02:17:52;101787.28;;;11.34;71.54
50550;BME280;36505;52.512;13.460;2023-05-25T02:20:21;101790.25;;;11.33;71.72
50550;BME280;36505;52.512;13.460;2023-05-25T02:22:47;101786.06;;;11.30;71.87
50550;BME280;36505;52.512;13.460;2023-05-25T02:25:12;101783.19;;;11.25;71.68
50550;BME280;36505;52.512;13.460;2023-05-25T02:27:37;101792.00;;;11.27;71.88
50550;BME280;36505;52.512;13.460;2023-05-25T02:30:03;101800.47;;;11.26;71.95
50550;BME280;36505;52.512;13.460;2023-05-25T02:32:29;101802.59;;;11.24;72.10
50550;BME280;36505;52.512;13.460;2023-05-25T02:34:55;101800.91;;;11.23;72.27
50550;BME280;36505;52.512;13.460;2023-05-25T02:37:20;101789.16;;;11.16;72.71
50550;BME280;36505;52.512;13.460;2023-05-25T02:39:46;101800.13;;;11.16;72.51
50550;BME280;36505;52.512;13.460;2023-05-25T02:42:11;101801.38;;;11.13;72.61
50550;BME280;36505;52.512;13.460;2023-05-25T02:44:36;101801.00;;;11.09;72.51
50550;BME280;36505;52.512;13.460;2023-05-25T02:47:02;101798.47;;;11.08;72.99
50550;BME280;36505;52.512;13.460;2023-05-25T02:49:27;101799.16;;;11.03;73.17
50550;BME280;36505;52.512;13.460;2023-05-25T02:51:54;101797.47;;;11.02;73.09
50550;BME280;36505;52.512;13.460;2023-05-25T02:54:20;101797.69;;;11.01;73.39
50550;BME280;36505;52.512;13.460;2023-05-25T02:56:45;101800.63;;;10.99;73.51
50550;BME280;36505;52.512;13.460;2023-05-25T02:59:11;101786.97;;;10.93;73.68
50550;BME280;36505;52.512;13.460;2023-05-25T03:01:36;101795.00;;;10.94;73.47
50550;BME280;36505;52.512;13.460;2023-05-25T03:04:01;101797.53;;;10.96;74.15
50550;BME280;36505;52.512;13.460;2023-05-25T03:06:27;101793.94;;;10.95;74.02
50550;BME280;36505;52.512;13.460;2023-05-25T03:08:52;101803.22;;;10.94;74.23
50550;BME280;36505;52.512;13.460;2023-05-25T03:11:18;101797.94;;;10.93;74.34
50550;BME280;36505;52.512;13.460;2023-05-25T03:13:43;101795.66;;;10.90;74.47
50550;BME280;36505;52.512;13.460;2023-05-25T03:16:08;101797.34;;;10.91;74.67
50550;BME280;36505;52.512;13.460;2023-05-25T03:18:34;101804.91;;;10.95;74.72
50550;BME280;36505;52.512;13.460;2023-05-25T03:21:00;101799.41;;;10.95;74.74
50550;BME280;36505;52.512;13.460;2023-05-25T03:23:25;101799.81;;;10.99;74.78
50550;BME280;36505;52.512;13.460;2023-05-25T03:25:50;101780.72;;;10.86;74.97
50550;BME280;36505;52.512;13.460;2023-05-25T03:28:16;101813.69;;;11.04;74.91
50550;BME280;36505;52.512;13.460;2023-05-25T03:30:41;101802.94;;;11.02;74.98
50550;BME280;36505;52.512;13.460;2023-05-25T03:33:06;101806.38;;;10.98;74.91
50550;BME280;36505;52.512;13.460;2023-05-25T03:35:32;101807.81;;;11.00;75.08
50550;BME280;36505;52.512;13.460;2023-05-25T03:37:57;101806.38;;;10.98;75.20
50550;BME280;36505;52.512;13.460;2023-05-25T03:40:23;101806.06;;;11.06;75.08
50550;BME280;36505;52.512;13.460;2023-05-25T03:42:48;101810.91;;;11.11;75.19
50550;BME280;36505;52.512;13.460;2023-05-25T03:45:14;101812.13;;;11.15;75.29
50550;BME280;36505;52.512;13.460;2023-05-25T03:47:39;101819.69;;;11.19;75.18
50550;BME280;36505;52.512;13.460;2023-05-25T03:50:05;101820.72;;;11.25;74.52
50550;BME280;36505;52.512;13.460;2023-05-25T03:52:32;101815.00;;;11.26;74.77
50550;BME280;36505;52.512;13.460;2023-05-25T03:54:57;101819.81;;;11.31;74.95
50550;BME280;36505;52.512;13.460;2023-05-25T03:57:23;101823.78;;;11.35;74.75
50550;BME280;36505;52.512;13.460;2023-05-25T03:59:48;101828.16;;;11.42;74.60
50550;BME280;36505;52.512;13.460;2023-05-25T04:02:13;101821.13;;;11.53;74.54
50550;BME280;36505;52.512;13.460;2023-05-25T04:04:39;101832.03;;;11.60;74.05
50550;BME280;36505;52.512;13.460;2023-05-25T04:07:06;101827.19;;;11.55;73.59
50550;BME280;36505;52.512;13.460;2023-05-25T04:09:31;101820.38;;;11.64;73.72
50550;BME280;36505;52.512;13.460;2023-05-25T04:11:57;101825.53;;;11.79;73.45
50550;BME280;36505;52.512;13.460;2023-05-25T04:14:22;101825.47;;;11.85;73.53
50550;BME280;36505;52.512;13.460;2023-05-25T04:16:48;101832.34;;;11.95;73.27
50550;BME280;36505;52.512;13.460;2023-05-25T04:19:13;101827.59;;;12.02;73.16
50550;BME280;36505;52.512;13.460;2023-05-25T04:21:39;101835.09;;;12.13;72.78
50550;BME280;36505;52.512;13.460;2023-05-25T04:24:04;101832.06;;;12.21;72.63
50550;BME280;36505;52.512;13.460;2023-05-25T04:26:30;101844.09;;;12.38;72.02
50550;BME280;36505;52.512;13.460;2023-05-25T04:28:56;101849.91;;;12.48;71.77
50550;BME280;36505;52.512;13.460;2023-05-25T04:31:22;101845.53;;;12.59;71.13
50550;BME280;36505;52.512;13.460;2023-05-25T04:33:51;101845.34;;;12.72;70.69
50550;BME280;36505;52.512;13.460;2023-05-25T04:36:16;101849.31;;;12.76;70.36
50550;BME280;36505;52.512;13.460;2023-05-25T04:38:42;101858.47;;;12.88;69.89
50550;BME280;36505;52.512;13.460;2023-05-25T04:41:13;101845.47;;;12.95;69.92
50550;BME280;36505;52.512;13.460;2023-05-25T04:43:38;101854.03;;;13.17;69.58
50550;BME280;36505;52.512;13.460;2023-05-25T04:46:04;101860.81;;;13.44;69.18
50550;BME280;36505;52.512;13.460;2023-05-25T04:48:29;101848.03;;;13.73;68.80
50550;BME280;36505;52.512;13.460;2023-05-25T04:50:58;101850.06;;;14.13;67.62
50550;BME280;36505;52.512;13.460;2023-05-25T04:53:27;101850.41;;;14.51;66.19
50550;BME280;36505;52.512;13.460;2023-05-25T04:55:53;101849.22;;;14.87;64.63
50550;BME280;36505;52.512;13.460;2023-05-25T04:58:19;101856.59;;;15.15;63.11
50550;BME280;36505;52.512;13.460;2023-05-25T05:00:45;101844.72;;;15.60;62.17
50550;BME280;36505;52.512;13.460;2023-05-25T05:03:11;101849.47;;;16.58;58.81
50550;BME280;36505;52.512;13.460;2023-05-25T05:05:37;101832.53;;;17.57;55.29
50550;BME280;36505;52.512;13.460;2023-05-25T05:08:03;101837.19;;;18.92;51.31
50550;BME280;36505;52.512;13.460;2023-05-25T05:10:28;101831.94;;;20.07;47.88
50550;BME280;36505;52.512;13.460;2023-05-25T05:12:54;101844.25;;;19.51;48.78
50550;BME280;36505;52.512;13.460;2023-05-25T05:15:19;101834.69;;;18.91;50.42
50550;BME280;36505;52.512;13.460;2023-05-25T05:17:45;101838.66;;;19.41;49.89
50550;BME280;36505;52.512;13.460;2023-05-25T05:20:11;101832.00;;;19.97;47.87
50550;BME280;36505;52.512;13.460;2023-05-25T05:22:37;101837.66;;;21.55;44.49
50550;BME280;36505;52.512;13.460;2023-05-25T05:25:03;101848.06;;;21.73;43.53
50550;BME280;36505;52.512;13.460;2023-05-25T05:27:28;101849.50;;;21.99;43.23
50550;BME280;36505;52.512;13.460;2023-05-25T05:29:54;101845.88;;;23.83;39.64
50550;BME280;36505;52.512;13.460;2023-05-25T05:32:19;101843.75;;;25.16;36.63
50550;BME280;36505;52.512;13.460;2023-05-25T05:34:45;101849.56;;;25.87;35.44
50550;BME280;36505;52.512;13.460;2023-05-25T05:37:10;101855.38;;;26.52;33.72
50550;BME280;36505;52.512;13.460;2023-05-25T05:39:36;101854.53;;;27.17;32.70
50550;BME280;36505;52.512;13.460;2023-05-25T05:42:01;101857.06;;;27.70;31.56
50550;BME280;36505;52.512;13.460;2023-05-25T05:44:26;101856.94;;;28.05;31.41
50550;BME280;36505;52.512;13.460;2023-05-25T05:46:52;101845.84;;;28.17;30.70
50550;BME280;36505;52.512;13.460;2023-05-25T05:49:24;101854.88;;;28.69;30.19
50550;BME280;36505;52.512;13.460;2023-05-25T05:51:49;101858.59;;;29.40;29.31
50550;BME280;36505;52.512;13.460;2023-05-25T05:54:15;101864.13;;;29.49;29.08
50550;BME280;36505;52.512;13.460;2023-05-25T05:56:40;101865.44;;;30.05;28.71
50550;BME280;36505;52.512;13.460;2023-05-25T05:59:05;101868.09;;;30.59;27.49
50550;BME280;36505;52.512;13.460;2023-05-25T06:01:31;101862.78;;;30.57;27.12
50550;BME280;36505;52.512;13.460;2023-05-25T06:03:57;101864.56;;;30.86;26.58
50550;BME280;36505;52.512;13.460;2023-05-25T06:06:22;101871.44;;;31.37;26.43
50550;BME280;36505;52.512;13.460;2023-05-25T06:08:47;101873.31;;;31.46;26.08
50550;BME280;36505;52.512;13.460;2023-05-25T06:11:13;101870.97;;;31.35;26.18
50550;BME280;36505;52.512;13.460;2023-05-25T06:13:38;101876.22;;;31.49;26.28
50550;BME280;36505;52.512;13.460;2023-05-25T06:16:04;101878.13;;;31.85;25.46
50550;BME280;36505;52.512;13.460;2023-05-25T06:18:29;101876.31;;;31.93;24.76
50550;BME280;36505;52.512;13.460;2023-05-25T06:20:55;101873.88;;;32.07;25.18
50550;BME280;36505;52.512;13.460;2023-05-25T06:23:20;101881.31;;;32.43;24.43
50550;BME280;36505;52.512;13.460;2023-05-25T06:25:45;101880.50;;;32.74;24.09
50550;BME280;36505;52.512;13.460;2023-05-25T06:28:11;101873.59;;;32.90;23.93
50550;BME280;36505;52.512;13.460;2023-05-25T06:30:36;101882.63;;;32.96;23.51
50550;BME280;36505;52.512;13.460;2023-05-25T06:33:02;101880.88;;;33.23;23.50
50550;BME280;36505;52.512;13.460;2023-05-25T06:35:27;101884.31;;;33.32;23.52
50550;BME280;36505;52.512;13.460;2023-05-25T06:37:53;101876.63;;;33.17;23.41
50550;BME280;36505;52.512;13.460;2023-05-25T06:40:18;101888.28;;;33.27;23.42
50550;BME280;36505;52.512;13.460;2023-05-25T06:42:43;101888.28;;;33.27;23.37
50550;BME280;36505;52.512;13.460;2023-05-25T06:45:09;101888.44;;;33.54;23.34
50550;BME280;36505;52.512;13.460;2023-05-25T06:47:35;101882.44;;;33.78;22.28
50550;BME280;36505;52.512;13.460;2023-05-25T06:50:01;101884.47;;;34.20;21.99
50550;BME280;36505;52.512;13.460;2023-05-25T06:52:26;101884.63;;;34.27;22.22
50550;BME280;36505;52.512;13.460;2023-05-25T06:54:56;101890.50;;;34.60;21.56
50550;BME280;36505;52.512;13.460;2023-05-25T06:57:22;101877.66;;;34.47;21.63
50550;BME280;36505;52.512;13.460;2023-05-25T06:59:48;101884.69;;;34.53;21.54
50550;BME280;36505;52.512;13.460;2023-05-25T07:02:14;101886.97;;;34.44;20.80
50550;BME280;36505;52.512;13.460;2023-05-25T07:04:39;101882.78;;;34.61;21.07
50550;BME280;36505;52.512;13.460;2023-05-25T07:07:04;101886.16;;;34.66;20.93
50550;BME280;36505;52.512;13.460;2023-05-25T07:09:31;101896.19;;;35.09;20.12
50550;BME280;36505;52.512;13.460;2023-05-25T07:11:56;101887.72;;;34.86;19.89
50550;BME280;36505;52.512;13.460;2023-05-25T07:14:21;101879.88;;;35.06;20.17
50550;BME280;36505;52.512;13.460;2023-05-25T07:16:47;101886.13;;;35.45;20.11
50550;BME280;36505;52.512;13.460;2023-05-25T07:19:12;101888.06;;;35.68;19.56
50550;BME280;36505;52.512;13.460;2023-05-25T07:21:37;101877.84;;;35.67;19.44
50550;BME280;36505;52.512;13.460;2023-05-25T07:24:06;101889.28;;;34.61;20.26
50550;BME280;36505;52.512;13.460;2023-05-25T07:26:32;101886.06;;;34.85;20.26
50550;BME280;36505;52.512;13.460;2023-05-25T07:28:58;101884.66;;;34.99;19.92
50550;BME280;36505;52.512;13.460;2023-05-25T07:31:23;101886.44;;;35.10;20.14
50550;BME280;36505;52.512;13.460;2023-05-25T07:33:49;101887.28;;;35.14;19.72
50550;BME280;36505;52.512;13.460;2023-05-25T07:36:15;101884.00;;;35.39;19.80
50550;BME280;36505;52.512;13.460;2023-05-25T07:38:40;101888.88;;;35.68;18.99
50550;BME280;36505;52.512;13.460;2023-05-25T07:41:06;101897.34;;;35.61;18.95
50550;BME280;36505;52.512;13.460;2023-05-25T07:43:31;101891.09;;;35.82;18.36
50550;BME280;36505;52.512;13.460;2023-05-25T07:45:56;101895.06;;;36.11;18.84
50550;BME280;36505;52.512;13.460;2023-05-25T07:48:22;101902.41;;;36.49;17.36
50550;BME280;36505;52.512;13.460;2023-05-25T07:50:47;101905.19;;;36.89;16.77
50550;BME280;36505;52.512;13.460;2023-05-25T07:53:13;101906.06;;;36.97;17.09
50550;BME280;36505;52.512;13.460;2023-05-25T07:55:38;101900.19;;;36.75;17.33
50550;BME280;36505;52.512;13.460;2023-05-25T07:58:04;101897.84;;;36.88;17.12
50550;BME280;36505;52.512;13.460;2023-05-25T08:00:31;101895.66;;;37.26;16.85
50550;BME280;36505;52.512;13.460;2023-05-25T08:02:57;101892.31;;;36.62;17.26
50550;BME280;36505;52.512;13.460;2023-05-25T08:05:22;101897.91;;;36.99;17.23
50550;BME280;36505;52.512;13.460;2023-05-25T08:07:47;101908.38;;;37.42;16.96
50550;BME280;36505;52.512;13.460;2023-05-25T08:10:13;101906.88;;;37.59;16.13
50550;BME280;36505;52.512;13.460;2023-05-25T08:12:38;101906.16;;;35.82;17.44
50550;BME280;36505;52.512;13.460;2023-05-25T08:15:04;101913.56;;;36.24;17.62
50550;BME280;36505;52.512;13.460;2023-05-25T08:17:30;101903.81;;;36.69;17.19
50550;BME280;36505;52.512;13.460;2023-05-25T08:19:55;101904.06;;;35.76;18.01
50550;BME280;36505;52.512;13.460;2023-05-25T08:22:20;101900.00;;;33.64;19.69
50550;BME280;36505;52.512;13.460;2023-05-25T08:24:46;101901.56;;;32.13;20.82
50550;BME280;36505;52.512;13.460;2023-05-25T08:27:11;101912.38;;;30.91;22.51
50550;BME280;36505;52.512;13.460;2023-05-25T08:29:37;101910.75;;;30.78;22.49
50550;BME280;36505;52.512;13.460;2023-05-25T08:32:02;101894.13;;;32.09;21.52
50550;BME280;36505;52.512;13.460;2023-05-25T08:34:27;101911.19;;;33.38;20.48
50550;BME280;36505;52.512;13.460;2023-05-25T08:36:55;101899.06;;;32.87;20.31
50550;BME280;36505;52.512;13.460;2023-05-25T08:39:21;101907.78;;;31.75;20.96
50550;BME280;36505;52.512;13.460;2023-05-25T08:41:48;101905.09;;;30.54;22.92
50550;BME280;36505;52.512;13.460;2023-05-25T08:44:14;101913.44;;;29.52;24.01
50550;BME280;36505;52.512;13.460;2023-05-25T08:46:40;101907.16;;;28.58;25.31
50550;BME280;36505;52.512;13.460;2023-05-25T08:49:12;101904.19;;;27.47;26.55
50550;BME280;36505;52.512;13.460;2023-05-25T08:51:41;101903.84;;;28.18;26.24
50550;BME280;36505;52.512;13.460;2023-05-25T08:54:09;101903.59;;;29.07;25.74
50550;BME280;36505;52.512;13.460;2023-05-25T08:56:49;101903.78;;;30.06;23.77
50550;BME280;36505;52.512;13.460;2023-05-25T08:59:36;101904.16;;;30.86;23.10
50550;BME280;36505;52.512;13.460;2023-05-25T09:05:12;101906.31;;;31.82;21.58
50550;BME280;36505;52.512;13.460;2023-05-25T09:07:38;101899.31;;;31.91;21.38
50550;BME280;36505;52.512;13.460;2023-05-25T09:10:06;101894.66;;;31.43;22.66
50550;BME280;36505;52.512;13.460;2023-05-25T09:12:34;101907.72;;;31.48;22.87
50550;BME280;36505;52.512;13.460;2023-05-25T09:15:00;101899.56;;;31.18;23.33
50550;BME280;36505;52.512;13.460;2023-05-25T09:17:26;101911.69;;;30.82;23.67
50550;BME280;36505;52.512;13.460;2023-05-25T09:19:53;101917.38;;;30.70;23.76
50550;BME280;36505;52.512;13.460;2023-05-25T09:22:18;101912.16;;;30.72;24.16
50550;BME280;36505;52.512;13.460;2023-05-25T09:24:44;101903.78;;;30.51;23.70
50550;BME280;36505;52.512;13.460;2023-05-25T09:27:10;101912.63;;;30.50;23.81
50550;BME280;36505;52.512;13.460;2023-05-25T09:29:36;101911.00;;;30.61;23.64
50550;BME280;36505;52.512;13.460;2023-05-25T09:32:03;101916.41;;;30.66;23.93
50550;BME280;36505;52.512;13.460;2023-05-25T09:34:31;101913.09;;;30.64;23.26
50550;BME280;36505;52.512;13.460;2023-05-25T09:37:02;101911.09;;;30.52;22.99
50550;BME280;36505;52.512;13.460;2023-05-25T09:39:28;101916.41;;;30.09;24.38
50550;BME280;36505;52.512;13.460;2023-05-25T09:41:55;101906.16;;;29.83;24.53
50550;BME280;36505;52.512;13.460;2023-05-25T09:44:21;101907.50;;;29.44;25.06
50550;BME280;36505;52.512;13.460;2023-05-25T09:46:47;101904.91;;;29.10;24.91
50550;BME280;36505;52.512;13.460;2023-05-25T09:49:12;101923.19;;;28.75;25.84
50550;BME280;36505;52.512;13.460;2023-05-25T09:51:38;101915.16;;;28.47;25.72
50550;BME280;36505;52.512;13.460;2023-05-25T09:54:08;101928.63;;;28.33;26.40
50550;BME280;36505;52.512;13.460;2023-05-25T09:56:34;101917.03;;;28.26;26.54
50550;BME280;36505;52.512;13.460;2023-05-25T09:59:00;101915.34;;;28.42;26.53
50550;BME280;36505;52.512;13.460;2023-05-25T10:01:25;101904.41;;;28.41;26.10
50550;BME280;36505;52.512;13.460;2023-05-25T10:03:54;101915.16;;;28.47;25.88
50550;BME280;36505;52.512;13.460;2023-05-25T10:06:24;101922.88;;;28.21;26.74
50550;BME280;36505;52.512;13.460;2023-05-25T10:08:51;101916.13;;;27.79;27.66
50550;BME280;36505;52.512;13.460;2023-05-25T10:11:18;101924.88;;;27.43;28.22
50550;BME280;36505;52.512;13.460;2023-05-25T10:13:45;101915.72;;;27.11;28.21
50550;BME280;36505;52.512;13.460;2023-05-25T10:16:16;101913.47;;;26.83;28.75
50550;BME280;36505;52.512;13.460;2023-05-25T10:19:05;101919.69;;;26.62;29.51
50550;BME280;36505;52.512;13.460;2023-05-25T10:21:32;101924.50;;;26.70;29.17
50550;BME280;36505;52.512;13.460;2023-05-25T10:24:24;101928.41;;;26.52;29.69
50550;BME280;36505;52.512;13.460;2023-05-25T10:26:53;101923.53;;;26.35;29.72
50550;BME280;36505;52.512;13.460;2023-05-25T10:29:22;101914.88;;;26.01;29.56
50550;BME280;36505;52.512;13.460;2023-05-25T10:31:50;101926.50;;;25.86;29.49
50550;BME280;36505;52.512;13.460;2023-05-25T10:34:16;101933.56;;;25.61;30.82
50550;BME280;36505;52.512;13.460;2023-05-25T10:36:41;101914.41;;;25.27;30.88
50550;BME280;36505;52.512;13.460;2023-05-25T10:39:07;101914.22;;;25.24;30.86
50550;BME280;36505;52.512;13.460;2023-05-25T10:41:33;101901.66;;;25.21;30.88
50550;BME280;36505;52.512;13.460;2023-05-25T10:43:59;101915.47;;;25.31;31.79
50550;BME280;36505;52.512;13.460;2023-05-25T10:46:26;101917.78;;;25.51;31.42
50550;BME280;36505;52.512;13.460;2023-05-25T10:48:52;101912.59;;;25.59;31.57
50550;BME280;36505;52.512;13.460;2023-05-25T10:51:35;101924.00;;;25.62;31.88
50550;BME280;36505;52.512;13.460;2023-05-25T10:54:02;101919.75;;;25.51;31.83
50550;BME280;36505;52.512;13.460;2023-05-25T10:56:27;101922.09;;;25.35;32.58
50550;BME280;36505;52.512;13.460;2023-05-25T10:58:52;101925.22;;;25.20;32.92
50550;BME280;36505;52.512;13.460;2023-05-25T11:01:18;101918.81;;;25.06;32.75
50550;BME280;36505;52.512;13.460;2023-05-25T11:06:13;101910.81;;;24.58;32.60
50550;BME280;36505;52.512;13.460;2023-05-25T11:08:51;101921.09;;;24.49;33.35
50550;BME280;36505;52.512;13.460;2023-05-25T11:11:18;101913.41;;;24.41;33.35
50550;BME280;36505;52.512;13.460;2023-05-25T11:13:47;101923.78;;;24.54;33.19
50550;BME280;36505;52.512;13.460;2023-05-25T11:16:15;101907.59;;;24.51;33.20
50550;BME280;36505;52.512;13.460;2023-05-25T11:18:48;101921.00;;;24.54;33.39
50550;BME280;36505;52.512;13.460;2023-05-25T11:24:10;101921.06;;;24.22;34.01
50550;BME280;36505;52.512;13.460;2023-05-25T11:26:36;101918.63;;;24.15;34.17
50550;BME280;36505;52.512;13.460;2023-05-25T11:29:12;101921.19;;;24.12;33.96
50550;BME280;36505;52.512;13.460;2023-05-25T11:31:37;101915.69;;;24.07;34.27
50550;BME280;36505;52.512;13.460;2023-05-25T11:34:04;101919.69;;;24.19;33.75
50550;BME280;36505;52.512;13.460;2023-05-25T11:36:31;101929.81;;;24.15;34.44
50550;BME280;36505;52.512;13.460;2023-05-25T11:39:04;101929.69;;;24.07;34.25
50550;BME280;36505;52.512;13.460;2023-05-25T11:41:30;101932.66;;;23.96;33.11
50550;BME280;36505;52.512;13.460;2023-05-25T11:44:05;101910.56;;;23.81;34.22
50550;BME280;36505;52.512;13.460;2023-05-25T11:46:31;101918.69;;;23.78;34.33
50550;BME280;36505;52.512;13.460;2023-05-25T11:48:57;101915.06;;;23.77;34.54
50550;BME280;36505;52.512;13.460;2023-05-25T11:51:28;101921.16;;;23.66;34.29
50550;BME280;36505;52.512;13.460;2023-05-25T11:53:53;101911.84;;;23.51;34.52
50550;BME280;36505;52.512;13.460;2023-05-25T11:56:20;101910.91;;;23.37;34.68
50550;BME280;36505;52.512;13.460;2023-05-25T11:58:47;101899.97;;;23.22;34.85
50550;BME280;36505;52.512;13.460;2023-05-25T12:01:17;101914.19;;;23.26;35.32
50550;BME280;36505;52.512;13.460;2023-05-25T12:03:47;101910.31;;;23.21;35.10
50550;BME280;36505;52.512;13.460;2023-05-25T12:08:49;101903.03;;;23.02;35.72
50550;BME280;36505;52.512;13.460;2023-05-25T12:11:15;101897.28;;;22.93;35.75
50550;BME280;36505;52.512;13.460;2023-05-25T12:13:40;101894.44;;;22.98;36.10
50550;BME280;36505;52.512;13.460;2023-05-25T12:16:06;101901.31;;;23.06;36.18
50550;BME280;36505;52.512;13.460;2023-05-25T12:18:31;101901.25;;;23.11;35.96
50550;BME280;36505;52.512;13.460;2023-05-25T12:20:57;101904.97;;;23.25;35.74
50550;BME280;36505;52.512;13.460;2023-05-25T12:23:22;101889.06;;;23.20;35.47
50550;BME280;36505;52.512;13.460;2023-05-25T12:25:48;101896.66;;;23.20;36.19
50550;BME280;36505;52.512;13.460;2023-05-25T12:28:15;101894.28;;;23.27;36.63
50550;BME280;36505;52.512;13.460;2023-05-25T12:30:41;101910.34;;;23.40;36.31
50550;BME280;36505;52.512;13.460;2023-05-25T12:33:06;101904.66;;;23.45;36.44
50550;BME280;36505;52.512;13.460;2023-05-25T12:35:48;101909.94;;;23.47;36.48
50550;BME280;36505;52.512;13.460;2023-05-25T12:38:17;101901.69;;;23.37;36.48
50550;BME280;36505;52.512;13.460;2023-05-25T12:40:43;101915.13;;;23.35;36.70
50550;BME280;36505;52.512;13.460;2023-05-25T12:43:09;101907.06;;;23.14;37.16
50550;BME280;36505;52.512;13.460;2023-05-25T12:45:42;101903.19;;;22.92;37.85
50550;BME280;36505;52.512;13.460;2023-05-25T12:48:08;101910.09;;;22.75;38.67
50550;BME280;36505;52.512;13.460;2023-05-25T12:50:34;101899.22;;;22.45;39.04
50550;BME280;36505;52.512;13.460;2023-05-25T12:53:00;101896.56;;;22.35;39.52
50550;BME280;36505;52.512;13.460;2023-05-25T12:55:30;101879.28;;;22.33;39.42